Terminal Aerodrome Forecast
Issued by NWS

Home | Current Version | Previous Version | Text Only | Print | Product List | Glossary On
Versions: 1 2 3 4 5 6 7 8 9 10 11 12 13 14 15 16 17 18 19 20 21 22 23 24 25 26 27 28
000
FTUS43 KDTX 230500
TAFPTK
TAF
KPTK 230521Z 2306/2406 24008KT P6SM BKN030 OVC040
      TEMPO 2306/2308 6SM -SHRA BR BKN028 OVC035
     FM230900 35012KT P6SM OVC024
     FM231100 01013KT P6SM OVC022
      TEMPO 2311/2313 OVC018
     FM231600 01014KT P6SM SCT035 OVC045
     FM240100 34008KT P6SM SCT060=

USA.gov is the U.S. government's official web portal to all federal, state and local government web resources and services.